Time;durP1;ratioP1;P1;durP2;ratioP2;P2;SDS_P1;SDS_P2;PMS_P1;PMS_P2;Temp;Humidity;BMP_temperature;BMP_pressure;BME280_temperature;BME280_humidity;BME280_pressure;Samples;Min_cycle;Max_cycle;Signal;HPM_P1;HPM_P2
2023/06/20 00:01:01;;;;;;;3.53;3.23;;;;;;;22.21;100.00;95971.75;5010587;28;102701;-59
2023/06/20 00:03:28;;;;;;;3.80;3.50;;;;;;;21.92;100.00;95972.66;5014514;28;101887;-59
2023/06/20 00:05:55;;;;;;;3.37;3.17;;;;;;;21.57;100.00;95982.13;4992331;28;105713;-59
2023/06/20 00:08:22;;;;;;;4.17;3.77;;;;;;;21.46;100.00;95982.84;5010751;28;101894;-59
2023/06/20 00:10:50;;;;;;;4.73;4.23;;;;;;;21.46;100.00;95991.75;5010971;28;102562;-59
2023/06/20 00:13:18;;;;;;;4.60;4.10;;;;;;;21.54;100.00;95987.41;5010338;28;102515;-59
2023/06/20 00:15:45;;;;;;;5.87;4.47;;;;;;;21.57;100.00;95998.38;5010832;28;102275;-59
2023/06/20 00:18:12;;;;;;;5.60;4.83;;;;;;;21.56;100.00;95998.69;5010984;28;102367;-59
2023/06/20 00:20:39;;;;;;;5.30;4.90;;;;;;;21.63;100.00;96002.47;5010181;28;103045;-59
2023/06/20 00:23:06;;;;;;;5.83;5.33;;;;;;;21.62;100.00;95994.66;5010840;28;102013;-59
2023/06/20 00:25:33;;;;;;;6.07;5.50;;;;;;;21.68;100.00;95993.41;4995576;28;104442;-59
2023/06/20 00:28:02;;;;;;;5.57;5.17;;;;;;;21.72;100.00;95994.31;4992706;28;102070;-59
2023/06/20 00:30:29;;;;;;;5.83;5.43;;;;;;;21.70;100.00;95983.81;5010793;28;102479;-59
2023/06/20 00:32:58;;;;;;;5.60;5.20;;;;;;;21.71;100.00;95987.31;4991774;28;104356;-59
2023/06/20 00:35:25;;;;;;;5.90;5.40;;;;;;;21.69;100.00;95984.16;4992526;28;102359;-59
2023/06/20 00:37:52;;;;;;;5.93;5.43;;;;;;;21.71;100.00;95976.50;5010563;28;102508;-59
2023/06/20 00:40:19;;;;;;;6.40;5.87;;;;;;;21.74;100.00;95970.44;4991610;28;105476;-59
2023/06/20 00:42:47;;;;;;;6.37;5.77;;;;;;;21.76;100.00;95968.19;4992474;28;102092;-59
2023/06/20 00:45:32;;;;;;;5.97;5.43;;;;;;;21.72;100.00;95967.25;4992456;28;105610;-59
2023/06/20 00:48:00;;;;;;;6.57;6.07;;;;;;;21.71;100.00;95971.06;5010041;28;103113;-59
2023/06/20 00:50:28;;;;;;;6.47;5.73;;;;;;;21.70;100.00;95980.31;4992210;28;105278;-59
2023/06/20 00:52:59;;;;;;;6.17;5.67;;;;;;;21.73;100.00;95988.56;4991611;28;105348;-59
2023/06/20 00:55:27;;;;;;;5.93;5.43;;;;;;;21.71;100.00;95995.44;5010549;28;101749;-59
2023/06/20 00:57:57;;;;;;;6.17;5.53;;;;;;;21.59;100.00;95995.34;5010350;28;102945;-59
2023/06/20 01:00:25;;;;;;;6.00;5.47;;;;;;;21.50;100.00;95992.69;4991489;28;105343;-59
2023/06/20 01:02:57;;;;;;;5.63;5.20;;;;;;;21.34;100.00;95994.38;4991966;28;101970;-59
2023/06/20 01:05:28;;;;;;;5.93;5.33;;;;;;;21.25;100.00;95985.53;4991070;28;105590;-59
2023/06/20 01:08:04;;;;;;;5.90;5.30;;;;;;;21.31;100.00;95989.63;4990854;28;103863;-59
2023/06/20 01:10:44;;;;;;;6.07;5.47;;;;;;;21.22;100.00;95994.31;4995486;28;102211;-59
2023/06/20 01:13:20;;;;;;;5.97;5.47;;;;;;;21.26;100.00;95987.09;5009550;28;103269;-59
2023/06/20 01:15:56;;;;;;;6.33;5.40;;;;;;;21.30;100.00;95987.25;4991945;28;101878;-59
2023/06/20 01:18:36;;;;;;;5.60;5.13;;;;;;;21.34;100.00;95993.59;4991870;28;105404;-59
2023/06/20 01:21:09;;;;;;;6.10;5.50;;;;;;;21.39;100.00;95993.41;4991238;28;105281;-59
2023/06/20 01:23:43;;;;;;;5.97;5.33;;;;;;;21.33;100.00;95994.72;4992008;28;101925;-59
2023/06/20 01:26:17;;;;;;;5.80;5.23;;;;;;;21.31;100.00;95999.66;5010039;28;102576;-59
2023/06/20 01:28:50;;;;;;;5.50;5.10;;;;;;;21.25;100.00;96003.69;4991142;28;105388;-59
2023/06/20 01:31:22;;;;;;;5.50;5.10;;;;;;;21.08;100.00;96007.25;4991800;28;101830;-59
2023/06/20 01:33:52;;;;;;;6.40;5.90;;;;;;;21.10;100.00;96001.53;5012748;28;102858;-59
2023/06/20 01:36:22;;;;;;;6.23;5.73;;;;;;;21.18;100.00;96006.88;4991636;28;102301;-59
2023/06/20 01:38:55;;;;;;;5.30;4.90;;;;;;;21.21;100.00;96010.84;5009456;28;102389;-59
2023/06/20 01:41:25;;;;;;;5.77;5.30;;;;;;;21.09;100.00;96000.72;4991105;28;104975;-59
2023/06/20 01:43:56;;;;;;;5.93;5.43;;;;;;;21.02;100.00;95995.03;4991597;28;101864;-59
2023/06/20 01:46:24;;;;;;;6.07;5.57;;;;;;;20.98;100.00;95996.03;4991582;28;105686;-59
2023/06/20 01:48:53;;;;;;;6.13;5.63;;;;;;;20.93;100.00;95993.50;4990647;28;105944;-59
2023/06/20 01:51:20;;;;;;;5.90;5.40;;;;;;;20.86;100.00;95995.84;4991512;28;102203;-59
2023/06/20 01:53:51;;;;;;;5.83;5.33;;;;;;;20.70;100.00;96008.34;4991412;28;105102;-59
2023/06/20 01:56:19;;;;;;;5.80;5.30;;;;;;;20.57;100.00;96009.31;4994139;28;105576;-59
2023/06/20 01:58:48;;;;;;;5.53;5.03;;;;;;;20.52;100.00;96015.69;4991374;28;105272;-59
2023/06/20 02:01:16;;;;;;;5.50;5.10;;;;;;;20.51;100.00;96019.53;4990651;28;106092;-59
2023/06/20 02:03:44;;;;;;;5.93;5.47;;;;;;;20.50;100.00;96030.66;4991251;28;102411;-60
2023/06/20 02:06:13;;;;;;;6.43;5.93;;;;;;;20.15;100.00;96024.50;4991219;28;105809;-59
2023/06/20 02:08:41;;;;;;;8.50;5.77;;;;;;;20.23;100.00;96023.72;4990288;28;105401;-59
2023/06/20 02:11:10;;;;;;;5.93;5.50;;;;;;;20.21;100.00;96030.53;4991193;28;101918;-59
2023/06/20 02:13:37;;;;;;;6.00;5.50;;;;;;;20.04;100.00;96017.81;4990853;28;105258;-59
2023/06/20 02:16:08;;;;;;;5.43;5.03;;;;;;;20.09;100.00;96022.28;4993807;28;105043;-59
2023/06/20 02:18:38;;;;;;;6.20;5.70;;;;;;;19.85;100.00;96033.53;4994405;28;105607;-59
2023/06/20 02:21:08;;;;;;;5.90;5.40;;;;;;;19.76;100.00;96035.44;5012113;28;102727;-59
2023/06/20 02:23:38;;;;;;;6.23;5.63;;;;;;;19.86;100.00;96045.09;4994456;28;101991;-59
2023/06/20 02:26:09;;;;;;;6.27;5.73;;;;;;;19.89;100.00;96052.59;4994522;28;105691;-59
2023/06/20 02:28:41;;;;;;;6.43;5.73;;;;;;;19.90;100.00;96062.25;4993917;28;105393;-59
2023/06/20 02:31:11;;;;;;;5.90;5.40;;;;;;;19.75;100.00;96068.94;4994674;28;102386;-59
2023/06/20 02:33:40;;;;;;;5.83;5.23;;;;;;;19.58;100.00;96073.47;4994247;28;105720;-59
2023/06/20 02:36:09;;;;;;;5.70;5.20;;;;;;;19.55;100.00;96074.09;4993638;28;105386;-59
2023/06/20 02:38:36;;;;;;;5.37;4.97;;;;;;;19.56;100.00;96067.63;4997877;28;101946;-59
2023/06/20 02:41:04;;;;;;;5.33;4.83;;;;;;;19.61;100.00;96068.25;5011894;28;102574;-59
2023/06/20 02:43:31;;;;;;;5.47;4.80;;;;;;;19.57;100.00;96075.38;4994268;28;101945;-59
2023/06/20 02:46:07;;;;;;;4.97;4.43;;;;;;;19.62;100.00;96079.84;4994128;28;105736;-59
2023/06/20 02:48:42;;;;;;;4.83;4.53;;;;;;;19.64;100.00;96085.72;4993594;28;105861;-59
2023/06/20 02:51:21;;;;;;;6.13;4.80;;;;;;;19.63;100.00;96074.13;5012509;28;101762;-59
2023/06/20 02:53:58;;;;;;;5.27;4.77;;;;;;;19.65;100.00;96080.00;4994216;28;105561;-59
2023/06/20 02:56:30;;;;;;;5.30;4.90;;;;;;;19.69;100.00;96083.69;4993731;28;103936;-59
2023/06/20 02:59:00;;;;;;;5.07;4.57;;;;;;;19.75;100.00;96082.41;4993908;28;102035;-59
2023/06/20 03:01:34;;;;;;;4.80;4.50;;;;;;;19.79;100.00;96085.28;4996698;28;105709;-59
2023/06/20 03:04:04;;;;;;;5.77;5.33;;;;;;;19.80;100.00;96094.94;4993960;28;102160;-59
2023/06/20 03:06:32;;;;;;;6.00;5.40;;;;;;;19.84;100.00;96112.09;4993935;28;104838;-59
2023/06/20 03:09:02;;;;;;;6.17;5.67;;;;;;;19.85;100.00;96136.09;5011593;28;102222;-59
2023/06/20 03:11:30;;;;;;;6.30;5.80;;;;;;;19.88;100.00;96156.22;4993920;28;101938;-59
2023/06/20 03:13:57;;;;;;;8.27;7.47;;;;;;;19.87;100.00;96195.13;4993666;28;105651;-59
2023/06/20 03:16:26;;;;;;;8.67;7.87;;;;;;;19.92;100.00;96232.78;4992984;28;105964;-59
2023/06/20 03:18:55;;;;;;;8.83;8.13;;;;;;;19.79;100.00;96233.69;4993820;28;102294;-59
2023/06/20 03:21:24;;;;;;;8.60;7.90;;;;;;;19.80;100.00;96216.38;4993629;28;103932;-59
2023/06/20 03:23:51;;;;;;;9.20;8.40;;;;;;;19.84;100.00;96217.34;4996392;28;105552;-59
2023/06/20 03:26:18;;;;;;;8.37;7.63;;;;;;;19.83;100.00;96230.03;4993692;28;104868;-59
2023/06/20 03:28:45;;;;;;;8.80;8.00;;;;;;;19.83;100.00;96251.63;4992354;28;105741;-59
2023/06/20 03:31:12;;;;;;;7.87;7.23;;;;;;;19.85;100.00;96257.53;4993672;28;102301;-59
2023/06/20 03:33:39;;;;;;;8.20;7.40;;;;;;;19.99;100.00;96270.94;4993677;28;105295;-59
2023/06/20 03:36:09;;;;;;;8.00;7.27;;;;;;;20.08;100.00;96272.56;4992881;28;105182;-59
2023/06/20 03:38:36;;;;;;;7.20;6.60;;;;;;;20.21;100.00;96278.97;4993307;28;102290;-59
2023/06/20 03:41:03;;;;;;;7.27;6.63;;;;;;;20.32;100.00;96282.97;4993393;28;105281;-59
2023/06/20 03:43:30;;;;;;;6.80;6.20;;;;;;;20.34;100.00;96295.06;4992953;28;104923;-59
2023/06/20 03:45:59;;;;;;;7.03;6.43;;;;;;;20.34;100.00;96286.13;4996791;28;102396;-59
2023/06/20 03:48:26;;;;;;;6.90;6.37;;;;;;;20.32;100.00;96299.94;4992607;28;105307;-59
2023/06/20 03:50:54;;;;;;;7.17;6.17;;;;;;;20.36;100.00;96308.22;4993329;28;101975;-59
2023/06/20 03:53:22;;;;;;;6.93;6.33;;;;;;;20.36;100.00;96313.63;4993251;28;105279;-59
2023/06/20 03:55:49;;;;;;;6.57;6.07;;;;;;;20.38;100.00;96312.19;4992552;28;105647;-59
2023/06/20 03:58:16;;;;;;;6.90;6.30;;;;;;;20.41;100.00;96316.19;4993140;28;101929;-59
2023/06/20 04:00:46;;;;;;;6.60;6.00;;;;;;;20.44;100.00;96316.34;4992845;28;105607;-59
2023/06/20 04:03:13;;;;;;;6.87;6.23;;;;;;;20.46;100.00;96324.94;4992405;28;105102;-59
2023/06/20 04:05:40;;;;;;;7.00;6.40;;;;;;;20.42;100.00;96323.97;4993067;28;101943;-59
2023/06/20 04:08:08;;;;;;;7.07;6.37;;;;;;;20.30;100.00;96326.50;4995155;28;105081;-59
2023/06/20 04:10:37;;;;;;;6.23;5.50;;;;;;;20.28;100.00;96333.31;4992949;28;101999;-59
2023/06/20 04:13:04;;;;;;;6.57;5.97;;;;;;;20.26;100.00;96336.31;4992562;28;105318;-59
2023/06/20 04:15:31;;;;;;;7.33;5.53;;;;;;;20.31;100.00;96344.28;4991887;28;105148;-59
2023/06/20 04:17:58;;;;;;;5.50;5.00;;;;;;;20.34;100.00;96340.16;4992818;28;102022;-59
2023/06/20 04:20:25;;;;;;;6.23;4.87;;;;;;;20.38;100.00;96349.25;4992709;28;105042;-59
2023/06/20 04:22:52;;;;;;;5.37;4.63;;;;;;;20.39;100.00;96342.72;4992116;28;105142;-59
2023/06/20 04:25:19;;;;;;;4.87;4.00;;;;;;;20.38;100.00;96338.44;4992566;28;101936;-59
2023/06/20 04:27:53;;;;;;;4.67;4.13;;;;;;;20.41;100.00;96340.50;4995158;28;105728;-59
2023/06/20 04:30:21;;;;;;;4.80;4.10;;;;;;;20.43;100.00;96335.59;4992737;28;101959;-59
2023/06/20 04:32:53;;;;;;;4.43;3.93;;;;;;;20.46;100.00;96341.16;4992686;28;105327;-59
2023/06/20 04:35:20;;;;;;;4.37;3.97;;;;;;;20.46;100.00;96356.56;4991964;28;103635;-59
2023/06/20 04:37:51;;;;;;;7.17;4.17;;;;;;;20.49;100.00;96351.31;4992422;28;102005;-59
2023/06/20 04:40:19;;;;;;;4.07;3.70;;;;;;;20.51;100.00;96351.00;4991453;28;103476;-59
2023/06/20 04:42:49;;;;;;;4.20;3.90;;;;;;;20.57;100.00;96355.16;4991594;28;105122;-59
2023/06/20 04:45:16;;;;;;;4.20;3.80;;;;;;;20.59;100.00;96356.44;4992537;28;102144;-59
2023/06/20 04:47:43;;;;;;;4.10;3.80;;;;;;;20.66;100.00;96353.28;4992514;28;105041;-59
2023/06/20 04:50:10;;;;;;;4.10;3.70;;;;;;;20.63;100.00;96349.31;4995388;28;105320;-59
2023/06/20 04:52:37;;;;;;;3.80;3.50;;;;;;;20.64;100.00;96352.78;5010519;28;102328;-60
2023/06/20 04:55:05;;;;;;;3.90;3.60;;;;;;;20.71;100.00;96355.84;4991660;28;105521;-59
2023/06/20 04:57:33;;;;;;;3.80;3.50;;;;;;;20.69;100.00;96355.34;5010175;28;101846;-59
2023/06/20 05:00:02;;;;;;;4.30;4.00;;;;;;;20.66;100.00;96354.06;4992089;28;105147;-59
2023/06/20 05:02:30;;;;;;;4.03;3.60;;;;;;;20.73;100.00;96353.63;4991427;28;105472;-59
2023/06/20 05:04:57;;;;;;;3.63;3.40;;;;;;;20.79;100.00;96347.75;4992164;28;101876;-59
2023/06/20 05:07:23;;;;;;;4.30;3.90;;;;;;;20.82;100.00;96344.41;4991614;28;105381;-59
2023/06/20 05:09:52;;;;;;;4.03;3.60;;;;;;;20.81;100.00;96344.75;4991339;28;105503;-59
2023/06/20 05:12:19;;;;;;;4.17;3.23;;;;;;;20.83;100.00;96346.00;5013402;28;101896;-59
2023/06/20 05:14:46;;;;;;;3.73;3.40;;;;;;;20.93;100.00;96348.41;4991000;28;105591;-59
2023/06/20 05:17:14;;;;;;;4.20;3.80;;;;;;;20.94;100.00;96338.41;4991928;28;101947;-59
2023/06/20 05:19:41;;;;;;;5.17;3.40;;;;;;;21.01;100.00;96341.44;5010040;28;102733;-59
2023/06/20 05:22:07;;;;;;;3.83;3.40;;;;;;;21.16;100.00;96343.69;5009396;28;102542;-59
2023/06/20 05:24:35;;;;;;;3.50;3.20;;;;;;;21.34;100.00;96346.06;5009967;28;101905;-59
2023/06/20 05:27:01;;;;;;;3.57;3.27;;;;;;;21.39;100.00;96347.81;4991693;28;105264;-59
2023/06/20 05:29:28;;;;;;;4.27;3.30;;;;;;;21.51;100.00;96350.66;5009259;28;102608;-59
2023/06/20 05:31:55;;;;;;;3.50;3.20;;;;;;;21.58;100.00;96346.34;4991647;28;102338;-59
2023/06/20 05:34:23;;;;;;;4.33;3.40;;;;;;;21.65;100.00;96340.44;5012624;28;102590;-59
2023/06/20 05:36:50;;;;;;;3.60;3.30;;;;;;;21.81;100.00;96344.28;4991591;28;102012;-59
2023/06/20 05:39:17;;;;;;;4.17;3.30;;;;;;;21.81;100.00;96344.28;4991460;28;105681;-59
2023/06/20 05:41:44;;;;;;;5.77;3.10;;;;;;;21.91;100.00;96335.81;5008916;28;102611;-59
2023/06/20 05:44:11;;;;;;;3.77;3.40;;;;;;;22.14;100.00;96339.88;5009786;28;101892;-59
2023/06/20 05:46:38;;;;;;;3.20;3.00;;;;;;;22.28;100.00;96349.38;4991378;28;105376;-59
2023/06/20 05:49:09;;;;;;;5.80;3.30;;;;;;;22.24;100.00;96342.22;5009093;28;101809;-59
2023/06/20 05:51:40;;;;;;;4.70;3.40;;;;;;;22.37;100.00;96350.13;4990977;28;101858;-59
2023/06/20 05:54:07;;;;;;;4.63;3.20;;;;;;;22.30;100.00;96341.72;5009829;28;102412;-59
2023/06/20 05:56:34;;;;;;;3.70;3.20;;;;;;;22.36;100.00;96347.75;5012242;28;102808;-59
2023/06/20 05:59:01;;;;;;;3.80;3.33;;;;;;;22.42;100.00;96351.88;4991421;28;103579;-59
2023/06/20 06:01:28;;;;;;;3.20;3.00;;;;;;;22.57;100.00;96346.72;5008712;28;102897;-59
2023/06/20 06:03:55;;;;;;;3.77;3.40;;;;;;;22.83;100.00;96357.44;4991127;28;101932;-60
2023/06/20 06:06:24;;;;;;;3.77;3.47;;;;;;;22.92;100.00;96350.00;5009397;28;102560;-60
2023/06/20 06:08:52;;;;;;;3.90;3.43;;;;;;;22.94;100.00;96342.34;5008478;28;102923;-60
2023/06/20 06:11:19;;;;;;;3.50;3.20;;;;;;;22.94;100.00;96347.78;5009145;28;101852;-60
2023/06/20 06:13:47;;;;;;;3.63;3.20;;;;;;;23.05;100.00;96346.28;5008988;28;102930;-60
2023/06/20 06:16:14;;;;;;;3.50;3.20;;;;;;;23.09;100.00;96345.28;4990371;28;103816;-60
2023/06/20 06:18:41;;;;;;;3.50;3.30;;;;;;;23.40;100.00;96344.91;5012734;28;101705;-60
2023/06/20 06:21:08;;;;;;;3.33;3.13;;;;;;;23.56;100.00;96340.44;5008419;28;103270;-60
2023/06/20 06:23:35;;;;;;;4.33;3.53;;;;;;;23.77;100.00;96336.53;5009234;28;102375;-60
2023/06/20 06:26:04;;;;;;;5.13;3.23;;;;;;;24.03;100.00;96339.03;5009233;28;102941;-60
2023/06/20 06:28:31;;;;;;;4.03;3.10;;;;;;;24.19;100.00;96343.47;4990252;28;105495;-60
2023/06/20 06:31:00;;;;;;;4.00;3.60;;;;;;;24.29;100.00;96342.22;4990869;28;102084;-60
2023/06/20 06:33:29;;;;;;;5.97;3.50;;;;;;;24.31;100.00;96335.31;5008991;28;102621;-60
2023/06/20 06:35:56;;;;;;;4.03;3.10;;;;;;;24.50;100.00;96337.50;4990373;28;105993;-60
2023/06/20 06:38:25;;;;;;;4.07;3.30;;;;;;;24.39;100.00;96333.63;5012372;28;102028;-60
2023/06/20 06:40:54;;;;;;;3.60;3.30;;;;;;;24.68;100.00;96339.69;4990181;28;105797;-60
2023/06/20 06:43:23;;;;;;;3.33;3.10;;;;;;;24.76;100.00;96338.78;5008945;28;101975;-60
2023/06/20 06:45:50;;;;;;;3.00;2.80;;;;;;;24.90;100.00;96331.03;4990804;28;104818;-60
2023/06/20 06:48:17;;;;;;;3.50;2.77;;;;;;;25.17;100.00;96324.84;5008240;28;102625;-60
2023/06/20 06:50:44;;;;;;;3.30;2.90;;;;;;;25.12;100.00;96327.03;4990687;28;101967;-60
2023/06/20 06:53:11;;;;;;;3.07;2.87;;;;;;;25.47;100.00;96328.09;5008805;28;102329;-60
2023/06/20 06:55:38;;;;;;;2.83;2.63;;;;;;;25.73;100.00;96331.16;5008200;28;102865;-60
2023/06/20 06:58:05;;;;;;;2.80;2.60;;;;;;;25.74;100.00;96330.81;4990500;28;101914;-60
2023/06/20 07:00:34;;;;;;;3.07;2.60;;;;;;;25.65;100.00;96323.91;4993159;28;105437;-60
2023/06/20 07:03:01;;;;;;;2.80;2.60;;;;;;;25.88;100.00;96328.47;4990647;28;101887;-60
2023/06/20 07:05:28;;;;;;;3.10;2.67;;;;;;;25.83;100.00;96325.22;4993402;28;105148;-60
2023/06/20 07:07:55;;;;;;;2.73;2.57;;;;;;;25.71;100.00;96328.78;4992848;28;105587;-60
2023/06/20 07:10:21;;;;;;;2.67;2.47;;;;;;;25.80;100.00;96326.69;4993887;28;101899;-60
2023/06/20 07:12:48;;;;;;;2.60;2.40;;;;;;;25.97;100.00;96325.59;4993797;28;105794;-60
2023/06/20 07:15:15;;;;;;;2.37;2.17;;;;;;;25.97;100.00;96322.88;4992833;28;105603;-60
2023/06/20 07:17:43;;;;;;;2.60;2.40;;;;;;;26.43;100.00;96319.41;4993788;28;101959;-60
2023/06/20 07:20:11;;;;;;;2.60;2.40;;;;;;;26.15;100.00;96329.59;4993897;28;105115;-60
2023/06/20 07:22:38;;;;;;;2.70;2.40;;;;;;;26.48;100.00;96322.63;5014512;28;102638;-60
2023/06/20 07:25:07;;;;;;;2.90;2.23;;;;;;;27.04;91.10;96324.00;5011892;28;102069;-60
2023/06/20 07:27:34;;;;;;;2.43;2.00;;;;;;;27.28;92.66;96320.22;4992952;28;105658;-60
2023/06/20 07:30:01;;;;;;;2.77;2.33;;;;;;;27.05;99.95;96313.84;4993586;28;101862;-60
2023/06/20 07:32:28;;;;;;;2.30;2.20;;;;;;;27.39;92.66;96313.03;5011796;28;102387;-59
2023/06/20 07:34:56;;;;;;;2.90;2.27;;;;;;;27.99;90.29;96306.84;5011161;28;102581;-60
2023/06/20 07:37:23;;;;;;;2.83;2.20;;;;;;;28.11;87.96;96301.97;5011342;28;101948;-60
2023/06/20 07:39:50;;;;;;;2.00;1.90;;;;;;;27.89;72.67;96301.97;4993055;28;105851;-59
2023/06/20 07:42:17;;;;;;;2.20;2.10;;;;;;;28.52;73.44;96294.88;4991852;28;103775;-59
2023/06/20 07:44:44;;;;;;;2.40;2.20;;;;;;;28.59;67.39;96303.19;4995783;28;102164;-59
2023/06/20 07:47:13;;;;;;;2.40;2.20;;;;;;;28.63;69.02;96298.56;4991559;28;105632;-60
2023/06/20 07:49:40;;;;;;;2.00;1.90;;;;;;;27.98;68.35;96302.53;4992470;28;102371;-60
2023/06/20 07:52:09;;;;;;;2.60;2.33;;;;;;;27.70;75.43;96294.56;4992186;28;105103;-60
2023/06/20 07:54:36;;;;;;;2.30;2.00;;;;;;;27.29;75.39;96297.25;5010042;28;103033;-60
2023/06/20 07:57:03;;;;;;;2.10;1.90;;;;;;;27.25;75.57;96282.72;5010711;28;101834;-60
2023/06/20 07:59:30;;;;;;;2.47;2.27;;;;;;;27.18;76.23;96288.06;5010625;28;102461;-60
2023/06/20 08:01:57;;;;;;;1.90;1.77;;;;;;;26.98;70.78;96300.06;4991957;28;105743;-60
2023/06/20 08:04:23;;;;;;;1.80;1.70;;;;;;;26.39;73.33;96297.50;4992662;28;102156;-60
2023/06/20 08:06:50;;;;;;;3.50;1.87;;;;;;;26.73;76.33;96304.97;4995109;28;103608;-60
2023/06/20 08:09:19;;;;;;;2.60;2.40;;;;;;;26.53;78.18;96305.22;4993047;28;102116;-60
2023/06/20 08:11:46;;;;;;;2.30;2.10;;;;;;;26.67;81.32;96302.84;5011050;28;102368;-60
2023/06/20 08:14:13;;;;;;;2.37;2.13;;;;;;;26.95;76.96;96295.28;4991732;28;105461;-60
2023/06/20 08:16:40;;;;;;;2.40;2.20;;;;;;;27.33;79.30;96293.44;4992634;28;101945;-60
2023/06/20 08:19:06;;;;;;;2.00;1.90;;;;;;;27.11;70.28;96279.66;4992561;28;105324;-60
2023/06/20 08:21:33;;;;;;;2.20;2.00;;;;;;;27.40;75.23;96279.13;4991664;28;105777;-60
2023/06/20 08:24:00;;;;;;;1.90;1.80;;;;;;;27.55;73.81;96280.97;4991973;28;102113;-60
2023/06/20 08:26:28;;;;;;;1.70;1.60;;;;;;;27.72;76.98;96273.13;4992604;28;105709;-60
2023/06/20 08:28:55;;;;;;;2.40;2.00;;;;;;;27.79;68.43;96270.53;4995259;28;101862;-60
2023/06/20 08:31:22;;;;;;;2.00;1.77;;;;;;;27.98;67.52;96266.97;4992234;28;105174;-60
2023/06/20 08:33:49;;;;;;;3.07;2.03;;;;;;;28.48;66.64;96272.13;4991762;28;104329;-60
2023/06/20 08:36:16;;;;;;;1.10;1.10;;;;;;;28.65;51.90;96271.63;4992469;28;101907;-60
2023/06/20 08:38:42;;;;;;;1.30;1.30;;;;;;;29.03;51.16;96268.69;4992431;28;103832;-60
2023/06/20 08:41:10;;;;;;;1.50;1.40;;;;;;;29.10;50.34;96261.34;4991596;28;104193;-60
2023/06/20 08:43:38;;;;;;;2.05;1.70;;;;;;;29.47;57.98;96262.19;4992046;28;102221;-60
2023/06/20 08:46:05;;;;;;;2.20;1.45;;;;;;;29.20;48.75;96259.94;4992097;28;105421;-60
2023/06/20 08:48:32;;;;;;;2.08;1.88;;;;;;;29.06;52.65;96246.03;4995055;28;105347;-60
2023/06/20 08:50:58;;;;;;;2.90;1.85;;;;;;;29.65;55.52;96259.69;4992072;28;105214;-60
2023/06/20 08:53:26;;;;;;;2.80;1.80;;;;;;;29.84;53.69;96251.28;4991393;28;105365;-60
2023/06/20 08:55:54;;;;;;;1.67;1.58;;;;;;;29.70;49.23;96248.41;4992257;28;102132;-60
2023/06/20 08:58:21;;;;;;;1.75;1.65;;;;;;;30.22;50.06;96237.16;4992225;28;105292;-60
2023/06/20 09:00:50;;;;;;;1.70;1.60;;;;;;;30.47;49.74;96243.63;4991311;28;105026;-60
2023/06/20 09:03:16;;;;;;;1.27;1.20;;;;;;;30.66;46.11;96235.97;4991716;28;102100;-60
2023/06/20 09:05:45;;;;;;;1.60;1.50;;;;;;;30.66;46.66;96235.16;4991583;28;105218;-60
2023/06/20 09:08:14;;;;;;;1.40;1.30;;;;;;;30.73;46.25;96238.75;5008956;28;102544;-60
2023/06/20 09:10:41;;;;;;;2.63;1.38;;;;;;;30.71;43.50;96234.81;4995409;28;102192;-60
2023/06/20 09:13:08;;;;;;;1.13;1.13;;;;;;;30.60;44.05;96242.16;5009335;28;102590;-60
2023/06/20 09:15:36;;;;;;;1.30;1.20;;;;;;;30.91;44.99;96236.13;5009973;28;101817;-60
2023/06/20 09:18:06;;;;;;;1.40;1.30;;;;;;;30.99;46.00;96233.00;5009938;28;102779;-60
2023/06/20 09:20:33;;;;;;;1.40;1.30;;;;;;;31.00;45.38;96229.09;5009154;28;102759;-60
2023/06/20 09:23:01;;;;;;;1.50;1.40;;;;;;;31.12;44.71;96222.47;4991585;28;102036;-60
2023/06/20 09:25:29;;;;;;;1.35;1.35;;;;;;;31.15;46.01;96218.94;5009392;28;102611;-60
2023/06/20 09:27:57;;;;;;;2.03;1.70;;;;;;;31.25;44.40;96207.25;4990311;28;105259;-59
2023/06/20 09:30:23;;;;;;;1.55;1.50;;;;;;;31.32;44.16;96201.81;4991561;28;101855;-60
2023/06/20 09:32:50;;;;;;;1.35;1.35;;;;;;;30.99;42.70;96207.50;4994162;28;105694;-60
2023/06/20 09:35:18;;;;;;;1.42;1.40;;;;;;;30.69;43.15;96213.25;4991683;28;101976;-60
2023/06/20 09:37:48;;;;;;;1.38;1.38;;;;;;;31.32;41.96;96208.06;5009886;28;102368;-61
2023/06/20 09:40:16;;;;;;;1.48;1.38;;;;;;;31.85;41.94;96208.22;4990778;28;105201;-59
2023/06/20 09:42:44;;;;;;;1.60;1.50;;;;;;;31.66;37.54;96195.59;5009358;28;101823;-59
2023/06/20 09:45:13;;;;;;;1.50;1.40;;;;;;;31.73;39.74;96195.66;4990896;28;105543;-58
2023/06/20 09:47:41;;;;;;;1.63;1.42;;;;;;;31.96;40.42;96198.00;4990812;28;105380;-60
2023/06/20 09:50:13;;;;;;;1.50;1.15;;;;;;;32.00;40.33;96193.31;4991165;28;101845;-60
2023/06/20 09:52:46;;;;;;;1.60;1.50;;;;;;;32.29;41.23;96184.69;5009634;28;102909;-60
2023/06/20 09:55:15;;;;;;;1.13;1.13;;;;;;;31.99;38.61;96177.97;4994014;28;105346;-60
2023/06/20 09:57:44;;;;;;;1.50;1.40;;;;;;;32.34;38.64;96176.03;4991416;28;103657;-60
2023/06/20 10:00:15;;;;;;;1.17;1.17;;;;;;;32.53;38.88;96181.09;5008749;28;102517;-59
2023/06/20 10:02:45;;;;;;;1.40;1.40;;;;;;;32.52;37.25;96176.03;4990791;28;101832;-57
2023/06/20 10:05:14;;;;;;;1.50;1.40;;;;;;;32.84;37.15;96162.97;4990779;28;105163;-57
2023/06/20 10:07:45;;;;;;;1.95;1.17;;;;;;;32.78;38.61;96161.81;4990101;28;105705;-57
2023/06/20 10:10:12;;;;;;;1.75;1.33;;;;;;;32.80;37.82;96159.44;5009032;28;101945;-59
2023/06/20 10:12:41;;;;;;;1.05;1.05;;;;;;;33.17;36.44;96151.41;4991065;28;103553;-60
2023/06/20 10:15:09;;;;;;;1.33;1.25;;;;;;;32.99;37.39;96146.00;4990298;28;105676;-60
2023/06/20 10:17:39;;;;;;;1.73;1.27;;;;;;;33.00;37.12;96146.75;5012539;28;101826;-59
2023/06/20 10:20:09;;;;;;;1.23;1.20;;;;;;;33.25;37.12;96145.47;5008532;28;103094;-59
2023/06/20 10:22:38;;;;;;;1.23;1.15;;;;;;;32.60;37.23;96139.00;4990709;28;101934;-59
2023/06/20 10:25:14;;;;;;;1.92;1.15;;;;;;;33.13;37.42;96145.91;5008741;28;102346;-59
2023/06/20 10:27:43;;;;;;;1.15;1.05;;;;;;;33.37;38.14;96134.03;5008796;28;102543;-59
2023/06/20 10:30:12;;;;;;;1.23;1.20;;;;;;;33.49;38.36;96141.81;4990625;28;101936;-59
2023/06/20 10:33:10;;;;;;;1.50;1.40;;;;;;;34.04;35.44;96139.06;5008948;28;102397;-59
2023/06/20 10:35:48;;;;;;;1.30;1.30;;;;;;;34.02;36.87;96144.22;4981216;28;105591;-59
2023/06/20 10:38:15;;;;;;;1.20;1.20;;;;;;;34.24;34.65;96142.84;5013974;28;101920;-59
2023/06/20 10:40:44;;;;;;;1.65;1.55;;;;;;;34.35;35.55;96138.03;5011701;28;103048;-60
2023/06/20 10:43:17;;;;;;;1.08;1.08;;;;;;;34.48;34.98;96134.34;4993913;28;101839;-59
2023/06/20 10:45:53;;;;;;;1.33;1.30;;;;;;;34.17;32.71;96129.13;4993667;28;105559;-59
2023/06/20 10:48:20;;;;;;;1.63;1.52;;;;;;;34.34;34.40;96126.22;5011993;28;102549;-59
2023/06/20 10:50:47;;;;;;;1.52;1.42;;;;;;;34.13;33.58;96122.84;4994094;28;101895;-59
2023/06/20 10:53:15;;;;;;;1.35;1.25;;;;;;;34.51;33.87;96124.47;5012113;28;102392;-59
2023/06/20 10:55:44;;;;;;;1.30;1.30;;;;;;;34.13;34.15;96114.56;5011735;28;103145;-59
2023/06/20 10:58:11;;;;;;;1.42;1.33;;;;;;;34.71;33.20;96108.84;5012272;28;101802;-59
2023/06/20 11:00:37;;;;;;;1.40;1.30;;;;;;;34.79;31.67;96102.06;4996337;28;105012;-59
2023/06/20 11:03:05;;;;;;;1.20;1.20;;;;;;;34.95;31.68;96105.03;4993624;28;101871;-59
2023/06/20 11:05:32;;;;;;;1.60;1.50;;;;;;;35.25;31.90;96096.78;4993266;28;105426;-59
2023/06/20 11:08:00;;;;;;;1.42;1.23;;;;;;;34.62;31.07;96097.50;4992872;28;105559;-59
2023/06/20 11:10:29;;;;;;;1.60;1.50;;;;;;;34.66;33.17;96103.78;5011922;28;102301;-59
2023/06/20 11:12:58;;;;;;;1.90;1.50;;;;;;;34.98;34.63;96088.41;5011773;28;101724;-59
2023/06/20 11:15:30;;;;;;;1.60;1.48;;;;;;;35.37;33.13;96091.44;4992453;28;105413;-59
2023/06/20 11:17:58;;;;;;;1.55;1.50;;;;;;;34.88;33.02;96094.06;5011877;28;101788;-59
2023/06/20 11:20:26;;;;;;;1.63;1.60;;;;;;;34.49;35.91;96096.47;4993494;28;105326;-59
2023/06/20 11:22:55;;;;;;;2.13;1.50;;;;;;;34.96;33.72;96098.28;5014241;28;102721;-59
2023/06/20 11:25:23;;;;;;;1.70;1.60;;;;;;;35.31;33.59;96089.56;5011113;28;102550;-59